Time;durP1;ratioP1;P1;durP2;ratioP2;P2;SDS_P1;SDS_P2;PMS_P1;PMS_P2;Temp;Humidity;BMP_temperature;BMP_pressure;BME280_temperature;BME280_humidity;BME280_pressure;Samples;Min_cycle;Max_cycle;Signal;HPM_P1;HPM_P2
2021/09/17 00:00:43;;;;;;;6.47;4.90;;;11.70;99.90;;;;;;5057150;28;20498;-51
2021/09/17 00:03:10;;;;;;;6.77;4.97;;;11.60;99.90;;;;;;5056980;28;20966;-55
2021/09/17 00:05:37;;;;;;;5.80;5.00;;;11.60;99.90;;;;;;5056748;28;20828;-58
2021/09/17 00:08:04;;;;;;;8.20;6.03;;;11.60;99.90;;;;;;5056517;28;20458;-53
2021/09/17 00:10:33;;;;;;;8.00;5.83;;;11.50;99.90;;;;;;5046356;28;20491;-54
2021/09/17 00:13:00;;;;;;;7.10;6.40;;;11.50;99.90;;;;;;5036655;28;20463;-53
2021/09/17 00:15:27;;;;;;;6.33;5.73;;;11.50;99.90;;;;;;5037130;28;20503;-52
2021/09/17 00:17:56;;;;;;;9.43;5.97;;;11.60;99.90;;;;;;5036870;28;20527;-54
2021/09/17 00:20:24;;;;;;;6.30;5.20;;;11.50;99.90;;;;;;5037020;28;20438;-55
2021/09/17 00:22:51;;;;;;;6.40;5.73;;;11.50;99.90;;;;;;5037048;28;20514;-56
2021/09/17 00:25:18;;;;;;;7.00;5.87;;;11.50;99.90;;;;;;5036792;28;20467;-58
2021/09/17 00:27:48;;;;;;;6.73;6.23;;;11.40;99.90;;;;;;5036756;28;20893;-56
2021/09/17 00:30:19;;;;;;;7.37;6.57;;;11.40;99.90;;;;;;5037002;28;20459;-55
2021/09/17 00:32:46;;;;;;;8.10;6.30;;;11.30;99.90;;;;;;5037007;28;20479;-54
2021/09/17 00:35:14;;;;;;;6.87;6.27;;;11.40;99.90;;;;;;5037072;28;20469;-54
2021/09/17 00:37:43;;;;;;;7.30;6.60;;;11.40;99.90;;;;;;5036588;28;20506;-56
2021/09/17 00:40:11;;;;;;;10.00;6.50;;;11.40;99.90;;;;;;5036899;28;20548;-56
2021/09/17 00:42:39;;;;;;;7.87;6.27;;;11.40;99.90;;;;;;5036825;28;20494;-54
2021/09/17 00:45:11;;;;;;;10.60;6.60;;;11.40;99.90;;;;;;5037105;28;20469;-57
2021/09/17 00:47:39;;;;;;;8.13;7.30;;;11.50;99.90;;;;;;5036780;28;20495;-55
2021/09/17 00:50:08;;;;;;;7.00;6.13;;;11.50;99.90;;;;;;5036860;28;20949;-56
2021/09/17 00:52:35;;;;;;;10.07;6.70;;;11.60;99.90;;;;;;5036713;28;20493;-53
2021/09/17 00:55:02;;;;;;;9.40;8.40;;;11.70;99.90;;;;;;5036581;28;20913;-55
2021/09/17 00:57:29;;;;;;;8.50;7.60;;;11.70;99.90;;;;;;5036472;28;20509;-55
2021/09/17 00:59:56;;;;;;;11.40;7.37;;;11.80;99.90;;;;;;5036872;28;20530;-57
2021/09/17 01:02:26;;;;;;;9.90;6.60;;;11.80;99.90;;;;;;5036660;28;20505;-57
2021/09/17 01:04:53;;;;;;;6.77;6.07;;;11.90;99.90;;;;;;5036060;28;20474;-58
2021/09/17 01:07:20;;;;;;;9.90;7.57;;;11.80;99.90;;;;;;5037364;28;20530;-55
2021/09/17 01:09:48;;;;;;;11.50;7.30;;;11.80;99.90;;;;;;5044508;28;20486;-56
2021/09/17 01:12:16;;;;;;;11.77;9.10;;;11.80;99.90;;;;;;5060277;28;20550;-57
2021/09/17 01:14:44;;;;;;;8.03;7.20;;;11.80;99.90;;;;;;5060264;28;20925;-54
2021/09/17 01:17:11;;;;;;;15.10;8.30;;;11.80;99.90;;;;;;5060169;28;20490;-57
2021/09/17 01:19:39;;;;;;;8.33;7.20;;;11.80;99.90;;;;;;5060024;28;20532;-54
2021/09/17 01:22:10;;;;;;;8.90;7.97;;;11.90;99.90;;;;;;5060350;28;20498;-54
2021/09/17 01:24:38;;;;;;;8.60;7.70;;;11.90;99.90;;;;;;5060399;28;20437;-58
2021/09/17 01:27:06;;;;;;;9.90;7.47;;;11.90;99.90;;;;;;5059756;28;20502;-54
2021/09/17 01:29:34;;;;;;;8.20;7.40;;;11.90;99.90;;;;;;5059743;28;20820;-56
2021/09/17 01:32:01;;;;;;;8.77;7.97;;;12.00;99.90;;;;;;5060100;28;20516;-50
2021/09/17 01:34:30;;;;;;;8.40;7.60;;;12.00;99.90;;;;;;5060172;28;20501;-54
2021/09/17 01:36:57;;;;;;;8.43;7.73;;;12.00;99.90;;;;;;5059055;28;20469;-56
2021/09/17 01:39:26;;;;;;;11.10;7.17;;;12.00;99.90;;;;;;5059342;28;20530;-55
2021/09/17 01:41:53;;;;;;;9.17;8.20;;;12.00;99.90;;;;;;5059758;28;20561;-52
2021/09/17 01:44:20;;;;;;;8.70;7.90;;;12.00;99.90;;;;;;5059835;28;20543;-54
2021/09/17 01:46:47;;;;;;;8.63;7.50;;;12.00;99.90;;;;;;5059679;28;20497;-54
2021/09/17 01:49:14;;;;;;;7.77;7.07;;;12.00;99.90;;;;;;5059182;28;20504;-56
2021/09/17 01:51:41;;;;;;;8.10;7.30;;;12.00;99.90;;;;;;5059198;28;20505;-55
2021/09/17 01:54:09;;;;;;;8.10;7.40;;;12.10;99.90;;;;;;5059471;28;20848;-55
2021/09/17 01:56:37;;;;;;;8.00;7.30;;;12.10;99.90;;;;;;5059376;28;20855;-55
2021/09/17 01:59:05;;;;;;;10.27;6.97;;;12.10;99.90;;;;;;5058886;28;20537;-55
2021/09/17 02:01:32;;;;;;;9.53;7.80;;;12.10;99.90;;;;;;5059088;28;20553;-57
2021/09/17 02:04:00;;;;;;;8.67;7.87;;;12.10;99.90;;;;;;5059565;28;20780;-54
2021/09/17 02:06:28;;;;;;;10.80;7.53;;;12.10;99.90;;;;;;5059166;28;20472;-57
2021/09/17 02:08:58;;;;;;;8.17;7.47;;;12.10;99.90;;;;;;5058965;28;20458;-57
2021/09/17 02:11:25;;;;;;;9.93;7.43;;;12.10;99.90;;;;;;5041206;28;20467;-58
2021/09/17 02:13:55;;;;;;;8.80;7.90;;;12.20;99.90;;;;;;5039012;28;20467;-55
2021/09/17 02:16:22;;;;;;;8.77;7.97;;;12.10;99.90;;;;;;5039138;28;20467;-56
2021/09/17 02:18:49;;;;;;;7.80;7.00;;;12.10;99.90;;;;;;5037651;28;20541;-57
2021/09/17 02:21:21;;;;;;;8.63;7.83;;;12.20;99.90;;;;;;5038745;28;20809;-54
2021/09/17 02:23:48;;;;;;;8.00;7.13;;;12.10;99.90;;;;;;5038377;28;20473;-57
2021/09/17 02:26:15;;;;;;;8.47;6.50;;;12.20;99.90;;;;;;5038820;28;20490;-53
2021/09/17 02:28:42;;;;;;;8.50;7.60;;;12.20;99.90;;;;;;5045342;28;20514;-56
2021/09/17 02:31:11;;;;;;;7.97;7.27;;;12.30;99.90;;;;;;5058646;28;20930;-54
2021/09/17 02:33:38;;;;;;;10.50;9.17;;;12.30;99.90;;;;;;5058612;28;20474;-57
2021/09/17 02:36:05;;;;;;;9.67;8.77;;;12.30;99.90;;;;;;5057097;28;20473;-56
2021/09/17 02:38:32;;;;;;;8.87;7.67;;;12.30;99.90;;;;;;5058448;28;20536;-58
2021/09/17 02:41:01;;;;;;;8.87;8.07;;;12.30;99.90;;;;;;5058552;28;20504;-57
2021/09/17 02:43:28;;;;;;;9.30;8.20;;;12.30;99.90;;;;;;5058172;28;20539;-55
2021/09/17 02:45:55;;;;;;;8.97;7.60;;;12.30;99.90;;;;;;5058478;28;20920;-57
2021/09/17 02:48:23;;;;;;;8.47;7.67;;;12.30;99.90;;;;;;5058489;28;20512;-55
2021/09/17 02:50:50;;;;;;;11.43;8.10;;;12.30;99.90;;;;;;5058338;28;20557;-57
2021/09/17 02:53:17;;;;;;;10.60;6.60;;;12.30;99.90;;;;;;5049082;28;20495;-54
2021/09/17 02:55:44;;;;;;;8.73;7.23;;;12.30;99.90;;;;;;5049919;28;20506;-56
2021/09/17 02:58:11;;;;;;;8.07;7.17;;;12.30;99.90;;;;;;5056931;28;20502;-51
2021/09/17 03:00:39;;;;;;;8.70;7.70;;;12.30;99.90;;;;;;5058067;28;20534;-58
2021/09/17 03:03:06;;;;;;;9.27;7.30;;;12.30;99.90;;;;;;5057697;28;20904;-55
2021/09/17 03:05:35;;;;;;;8.17;7.37;;;12.20;99.90;;;;;;5058006;28;20805;-56
2021/09/17 03:08:02;;;;;;;7.57;6.83;;;12.20;99.90;;;;;;5057758;28;20462;-53
2021/09/17 03:10:32;;;;;;;9.40;7.80;;;12.20;99.90;;;;;;5047066;28;20458;-55
2021/09/17 03:12:59;;;;;;;9.87;8.10;;;12.20;99.90;;;;;;5037778;28;20491;-57
2021/09/17 03:15:26;;;;;;;9.53;7.10;;;12.30;99.90;;;;;;5037510;28;20474;-55
2021/09/17 03:17:54;;;;;;;8.00;6.97;;;12.30;99.90;;;;;;5037800;28;20514;-55
2021/09/17 03:20:22;;;;;;;8.00;7.30;;;12.30;99.90;;;;;;5037871;28;20577;-57
2021/09/17 03:22:50;;;;;;;8.70;7.80;;;12.30;99.90;;;;;;5037501;28;20870;-56
2021/09/17 03:25:17;;;;;;;8.57;7.67;;;12.30;99.90;;;;;;5037501;28;20499;-57
2021/09/17 03:27:44;;;;;;;9.33;8.53;;;12.20;99.90;;;;;;5037099;28;20530;-56
2021/09/17 03:30:12;;;;;;;9.33;8.13;;;12.30;99.90;;;;;;5057232;28;20517;-57
2021/09/17 03:32:40;;;;;;;8.80;8.00;;;12.30;99.90;;;;;;5057693;28;20466;-58
2021/09/17 03:35:07;;;;;;;10.10;9.20;;;12.30;99.90;;;;;;5057453;28;20469;-57
2021/09/17 03:37:34;;;;;;;10.90;8.17;;;12.40;99.90;;;;;;5057454;28;20512;-57
2021/09/17 03:40:04;;;;;;;9.53;8.63;;;12.40;99.90;;;;;;5057409;28;20525;-56
2021/09/17 03:42:31;;;;;;;10.20;9.20;;;12.40;99.90;;;;;;5053458;28;20568;-57
2021/09/17 03:44:58;;;;;;;9.43;8.53;;;12.40;99.90;;;;;;5056112;28;20506;-57
2021/09/17 03:47:25;;;;;;;9.73;8.83;;;12.40;99.90;;;;;;5057300;28;20831;-57
2021/09/17 03:49:52;;;;;;;10.27;9.27;;;12.40;99.90;;;;;;5057304;28;20928;-57
2021/09/17 03:52:19;;;;;;;9.37;8.47;;;12.50;99.90;;;;;;5057636;28;20505;-55
2021/09/17 03:54:46;;;;;;;10.43;9.23;;;12.40;99.90;;;;;;5057177;28;20493;-55
2021/09/17 03:57:15;;;;;;;8.47;7.67;;;12.40;99.90;;;;;;5057067;28;20734;-54
2021/09/17 03:59:42;;;;;;;8.20;7.00;;;12.40;99.90;;;;;;5057208;28;20490;-56
2021/09/17 04:02:09;;;;;;;7.70;6.80;;;12.40;99.90;;;;;;5057124;28;20461;-56
2021/09/17 04:04:39;;;;;;;9.37;8.47;;;12.40;99.90;;;;;;5057483;28;20506;-54
2021/09/17 04:07:06;;;;;;;9.10;8.07;;;12.40;99.90;;;;;;5057402;28;20556;-58
2021/09/17 04:09:33;;;;;;;9.07;8.27;;;12.40;99.90;;;;;;5054164;28;20462;-56
2021/09/17 04:12:01;;;;;;;9.17;8.33;;;12.40;99.90;;;;;;5036794;28;20469;-57
2021/09/17 04:14:31;;;;;;;11.07;7.90;;;12.40;99.90;;;;;;5057277;28;20504;-56
2021/09/17 04:16:58;;;;;;;12.13;8.80;;;12.40;99.90;;;;;;5056361;28;20498;-55
2021/09/17 04:19:28;;;;;;;11.80;10.10;;;12.40;99.90;;;;;;5056722;28;20611;-56
2021/09/17 04:21:57;;;;;;;11.27;10.17;;;12.50;99.90;;;;;;5057009;28;20892;-54
2021/09/17 04:24:24;;;;;;;12.50;11.20;;;12.60;99.90;;;;;;5057234;28;20509;-58
2021/09/17 04:26:51;;;;;;;11.30;10.03;;;12.60;99.90;;;;;;5056714;28;20502;-58
2021/09/17 04:29:18;;;;;;;12.00;10.70;;;12.60;99.90;;;;;;5056715;28;20478;-57
2021/09/17 04:31:46;;;;;;;10.63;9.53;;;12.60;99.90;;;;;;5056845;28;20509;-55
2021/09/17 04:34:13;;;;;;;11.70;9.50;;;12.60;99.90;;;;;;5056905;28;20952;-54
2021/09/17 04:36:40;;;;;;;10.93;9.80;;;12.60;99.90;;;;;;5057162;28;20475;-55
2021/09/17 04:39:07;;;;;;;10.43;9.43;;;12.60;99.90;;;;;;5056791;28;20923;-58
2021/09/17 04:41:34;;;;;;;10.83;9.73;;;12.60;99.90;;;;;;5056049;28;20839;-57
2021/09/17 04:44:01;;;;;;;12.00;10.67;;;12.60;99.90;;;;;;5060764;28;20557;-54
2021/09/17 04:46:28;;;;;;;11.90;9.27;;;12.60;99.90;;;;;;5060819;28;20955;-56
2021/09/17 04:48:58;;;;;;;13.40;9.83;;;12.60;99.90;;;;;;5060149;28;20909;-56
2021/09/17 04:51:25;;;;;;;11.40;10.20;;;12.60;99.90;;;;;;5060648;28;20468;-55
2021/09/17 04:53:52;;;;;;;12.50;11.27;;;12.60;99.90;;;;;;5060476;28;20504;-56
2021/09/17 04:56:19;;;;;;;11.27;9.60;;;12.60;99.90;;;;;;5060647;28;20484;-56
2021/09/17 04:58:46;;;;;;;13.00;11.80;;;12.60;99.90;;;;;;5060185;28;20461;-55
2021/09/17 05:01:13;;;;;;;12.23;11.00;;;12.60;99.90;;;;;;5060004;28;20529;-56
2021/09/17 05:03:40;;;;;;;12.20;11.00;;;12.60;99.90;;;;;;5060163;28;20498;-53
2021/09/17 05:06:11;;;;;;;13.20;11.60;;;12.60;99.90;;;;;;5060388;28;20462;-58
2021/09/17 05:08:38;;;;;;;13.23;10.40;;;12.60;99.90;;;;;;5060693;28;20873;-58
2021/09/17 05:11:05;;;;;;;13.93;12.50;;;12.60;99.90;;;;;;5052790;28;20539;-57
2021/09/17 05:13:32;;;;;;;13.03;10.40;;;12.60;99.90;;;;;;5059737;28;20465;-55
2021/09/17 05:16:01;;;;;;;14.87;13.07;;;12.70;99.90;;;;;;5060050;28;20497;-55
2021/09/17 05:18:28;;;;;;;14.63;13.13;;;12.70;99.90;;;;;;5059937;28;20877;-54
2021/09/17 05:20:59;;;;;;;14.40;12.60;;;12.70;99.90;;;;;;5056659;28;20835;-55
2021/09/17 05:23:27;;;;;;;14.20;12.63;;;12.70;99.90;;;;;;5052054;28;20474;-57
2021/09/17 05:25:54;;;;;;;15.13;12.87;;;12.70;99.90;;;;;;5058491;28;20448;-55
2021/09/17 05:28:23;;;;;;;16.57;13.97;;;12.70;99.90;;;;;;5059752;28;20517;-57
2021/09/17 05:30:50;;;;;;;14.07;12.07;;;12.70;99.90;;;;;;5056969;28;20468;-56
2021/09/17 05:33:17;;;;;;;18.77;13.53;;;12.70;99.90;;;;;;5042253;28;20510;-57
2021/09/17 05:35:44;;;;;;;14.47;12.27;;;12.70;99.90;;;;;;5039756;28;20528;-55
2021/09/17 05:38:10;;;;;;;13.90;11.53;;;12.80;99.90;;;;;;5053951;28;20531;-58
2021/09/17 05:40:39;;;;;;;14.60;12.20;;;12.80;99.90;;;;;;5059525;28;20563;-56
2021/09/17 05:43:06;;;;;;;13.20;11.30;;;12.90;99.90;;;;;;5059275;28;20466;-58
2021/09/17 05:45:33;;;;;;;12.20;11.10;;;12.90;99.90;;;;;;5059457;28;20433;-56
2021/09/17 05:48:00;;;;;;;14.73;10.33;;;13.00;99.90;;;;;;5059303;28;20494;-57
2021/09/17 05:50:27;;;;;;;14.03;12.70;;;13.00;99.90;;;;;;5059568;28;20433;-56
2021/09/17 05:52:54;;;;;;;13.40;11.73;;;13.10;99.90;;;;;;5058905;28;20501;-57
2021/09/17 05:55:26;;;;;;;15.17;12.90;;;13.10;99.90;;;;;;5058667;28;20466;-57
2021/09/17 05:57:55;;;;;;;17.00;14.33;;;13.20;99.90;;;;;;5057853;28;20466;-57
2021/09/17 06:00:22;;;;;;;15.67;13.43;;;13.30;99.90;;;;;;5056350;28;20525;-56
2021/09/17 06:02:49;;;;;;;20.10;14.90;;;13.30;99.90;;;;;;5052263;28;20507;-55
2021/09/17 06:05:18;;;;;;;20.50;15.63;;;13.30;99.90;;;;;;5038472;28;20463;-55
2021/09/17 06:07:48;;;;;;;17.80;14.57;;;13.40;99.90;;;;;;5039165;28;20808;-56
2021/09/17 06:10:15;;;;;;;18.77;14.93;;;13.40;99.90;;;;;;5048358;28;20469;-58
2021/09/17 06:12:43;;;;;;;16.50;14.90;;;13.40;99.90;;;;;;5058846;28;20462;-55
2021/09/17 06:15:16;;;;;;;19.20;15.80;;;13.50;99.90;;;;;;5057223;28;20505;-56
2021/09/17 06:17:44;;;;;;;22.00;14.67;;;13.70;99.90;;;;;;5056717;28;20519;-56
2021/09/17 06:20:18;;;;;;;19.10;15.30;;;13.70;99.90;;;;;;5056951;28;20494;-57
2021/09/17 06:22:46;;;;;;;19.10;16.23;;;13.80;99.90;;;;;;5057621;28;20498;-56
2021/09/17 06:25:15;;;;;;;22.70;17.97;;;13.90;99.90;;;;;;5058000;28;20462;-58
2021/09/17 06:27:42;;;;;;;21.90;18.03;;;13.90;99.90;;;;;;5057554;28;20552;-57
2021/09/17 06:30:11;;;;;;;18.07;15.43;;;13.90;99.90;;;;;;5058016;28;20865;-57
2021/09/17 06:32:38;;;;;;;19.07;17.27;;;13.90;99.90;;;;;;5057484;28;20494;-56
2021/09/17 06:35:06;;;;;;;18.43;16.47;;;14.00;99.90;;;;;;5057707;28;20494;-57
2021/09/17 06:37:33;;;;;;;22.50;18.00;;;14.10;99.90;;;;;;5058213;28;20581;-57
2021/09/17 06:40:00;;;;;;;20.43;18.27;;;14.10;99.90;;;;;;5058361;28;20968;-58
2021/09/17 06:42:28;;;;;;;20.20;17.50;;;14.20;99.90;;;;;;5058436;28;20462;-59
2021/09/17 06:44:55;;;;;;;19.63;17.53;;;14.30;99.90;;;;;;5058444;28;20970;-55
2021/09/17 06:47:26;;;;;;;18.63;16.63;;;14.30;99.90;;;;;;5058886;28;20524;-58
2021/09/17 06:49:53;;;;;;;18.37;16.17;;;14.40;99.90;;;;;;5058227;28;20524;-52
2021/09/17 06:52:20;;;;;;;17.20;15.27;;;14.40;99.90;;;;;;5057913;28;20536;-56
2021/09/17 06:54:47;;;;;;;20.57;17.30;;;14.50;99.90;;;;;;5056511;28;20463;-56
2021/09/17 06:57:17;;;;;;;18.80;15.13;;;14.50;99.90;;;;;;5058019;28;20489;-56
2021/09/17 06:59:49;;;;;;;15.00;13.50;;;14.60;99.90;;;;;;5063978;28;20469;-54
2021/09/17 07:02:16;;;;;;;17.53;15.53;;;14.50;1.00;;;;;;5064843;28;20458;-57
2021/09/17 07:04:45;;;;;;;19.43;17.43;;;14.50;99.90;;;;;;5066612;28;20497;-57
2021/09/17 07:07:15;;;;;;;18.43;16.40;;;14.70;1.00;;;;;;5067737;28;20867;-56
2021/09/17 07:09:44;;;;;;;21.10;16.70;;;14.90;1.00;;;;;;5039182;28;20936;-54
2021/09/17 07:12:14;;;;;;;20.60;18.50;;;15.00;1.00;;;;;;5037620;28;20463;-56
2021/09/17 07:14:43;;;;;;;22.70;18.13;;;15.20;1.00;;;;;;5050606;28;20920;-56
2021/09/17 07:17:09;;;;;;;25.03;19.80;;;15.20;99.90;;;;;;5055772;28;20892;-54
2021/09/17 07:19:36;;;;;;;20.07;17.90;;;15.30;99.90;;;;;;5056469;28;20927;-57
2021/09/17 07:22:05;;;;;;;23.20;20.17;;;15.40;99.90;;;;;;5056007;28;20556;-54
2021/09/17 07:24:32;;;;;;;25.03;20.70;;;15.50;68.60;;;;;;5057247;28;20446;-58
2021/09/17 07:26:59;;;;;;;24.70;22.10;;;15.60;99.90;;;;;;5055194;28;20462;-52
2021/09/17 07:29:29;;;;;;;22.80;20.40;;;15.60;1.00;;;;;;5054554;28;20486;-53
2021/09/17 07:31:57;;;;;;;23.93;21.63;;;15.70;1.00;;;;;;5056856;28;20459;-58
2021/09/17 07:34:24;;;;;;;28.07;22.80;;;15.70;99.90;;;;;;5054083;28;20745;-52
2021/09/17 07:36:51;;;;;;;30.10;22.40;;;15.90;1.00;;;;;;5050198;28;20467;-56
2021/09/17 07:39:23;;;;;;;25.50;22.40;;;16.10;1.00;;;;;;5040752;28;20849;-52
2021/09/17 07:41:50;;;;;;;27.57;23.07;;;16.20;99.90;;;;;;5047695;28;20500;-51
2021/09/17 07:44:19;;;;;;;25.77;22.97;;;16.40;99.90;;;;;;5057117;28;20497;-52
2021/09/17 07:46:49;;;;;;;25.50;21.97;;;16.40;1.00;;;;;;5055755;28;20466;-54
2021/09/17 07:49:20;;;;;;;28.30;23.70;;;16.50;1.00;;;;;;5046448;28;20467;-55
2021/09/17 07:51:48;;;;;;;34.17;28.97;;;16.80;1.00;;;;;;5056639;28;20485;-53
2021/09/17 07:54:16;;;;;;;37.73;30.10;;;16.90;1.00;;;;;;5056198;28;20943;-50
2021/09/17 07:56:47;;;;;;;29.27;26.03;;;17.00;99.90;;;;;;5052164;28;20497;-55
2021/09/17 07:59:14;;;;;;;27.97;24.57;;;17.40;99.90;;;;;;5036635;28;20564;-57
2021/09/17 08:01:42;;;;;;;27.37;24.33;;;17.90;99.90;;;;;;5050107;28;20493;-51
2021/09/17 08:04:09;;;;;;;28.37;25.30;;;18.00;2.70;;;;;;5055948;28;20959;-56
2021/09/17 08:06:36;;;;;;;30.80;27.47;;;17.90;1.00;;;;;;5056117;28;20468;-57
2021/09/17 08:09:06;;;;;;;30.07;25.67;;;18.50;1.00;;;;;;5056769;28;20823;-53
2021/09/17 08:11:33;;;;;;;28.37;25.47;;;18.80;1.00;;;;;;5056142;28;20465;-53
2021/09/17 08:14:07;;;;;;;31.17;26.03;;;18.90;1.00;;;;;;5055615;28;20475;-54
2021/09/17 08:16:34;;;;;;;34.53;30.90;;;18.70;1.00;;;;;;5053863;28;20512;-54
2021/09/17 08:19:02;;;;;;;33.20;29.80;;;18.90;1.00;;;;;;5055040;28;20486;-55
2021/09/17 08:21:30;;;;;;;34.53;29.33;;;18.70;1.00;;;;;;5056349;28;20489;-52
2021/09/17 08:23:58;;;;;;;36.13;30.80;;;18.80;1.00;;;;;;5055422;28;20524;-53
2021/09/17 08:26:25;;;;;;;33.03;29.57;;;18.80;1.00;;;;;;5055851;28;20462;-54
2021/09/17 08:28:52;;;;;;;30.33;27.10;;;19.00;1.00;;;;;;5056043;28;20563;-57
2021/09/17 08:31:20;;;;;;;33.77;30.37;;;19.10;1.00;;;;;;5051338;28;20589;-53
2021/09/17 08:33:47;;;;;;;43.53;32.20;;;19.20;1.00;;;;;;5036440;28;20964;-52
2021/09/17 08:36:22;;;;;;;36.47;31.40;;;19.60;1.00;;;;;;5051685;28;20458;-49
2021/09/17 08:38:48;;;;;;;36.30;32.07;;;20.00;1.00;;;;;;5045216;28;20826;-50
2021/09/17 08:41:19;;;;;;;34.60;31.03;;;20.40;1.00;;;;;;5056713;28;20552;-51
2021/09/17 08:43:48;;;;;;;36.10;32.30;;;20.80;1.00;;;;;;5056957;28;20458;-48
2021/09/17 08:46:18;;;;;;;35.70;32.13;;;20.90;1.00;;;;;;5056862;28;20498;-51
2021/09/17 08:48:49;;;;;;;35.30;31.57;;;21.00;1.00;;;;;;5055727;28;20817;-54
2021/09/17 08:51:16;;;;;;;33.40;30.10;;;21.30;1.00;;;;;;5056385;28;20501;-56
2021/09/17 08:53:44;;;;;;;29.13;26.20;;;21.60;1.00;;;;;;5056687;28;20544;-50
2021/09/17 08:56:15;;;;;;;29.00;26.13;;;21.70;1.00;;;;;;5056743;28;20943;-53
2021/09/17 08:58:42;;;;;;;28.30;25.70;;;21.30;1.00;;;;;;5055775;28;20500;-56
2021/09/17 09:01:26;;;;;;;26.80;24.00;;;21.30;1.00;;;;;;5056011;28;20528;-53
2021/09/17 09:03:57;;;;;;;31.10;27.23;;;21.80;1.00;;;;;;5052936;28;20481;-51
2021/09/17 09:06:25;;;;;;;29.37;24.73;;;22.00;99.90;;;;;;5054912;28;20462;-49
2021/09/17 09:08:52;;;;;;;32.13;28.73;;;22.20;99.90;;;;;;5055034;28;20461;-57
2021/09/17 09:11:25;;;;;;;29.47;26.30;;;22.30;99.90;;;;;;5055109;28;20817;-51
2021/09/17 09:14:01;;;;;;;30.97;27.87;;;22.50;99.90;;;;;;5052382;28;20892;-53
2021/09/17 09:16:31;;;;;;;28.93;26.00;;;22.90;99.90;;;;;;5056351;28;20457;-53
2021/09/17 09:19:23;;;;;;;25.53;23.03;;;22.90;99.90;;;;;;5056007;28;20465;-52
2021/09/17 09:21:52;;;;;;;26.63;23.83;;;22.60;99.90;;;;;;5056155;28;20529;-51
2021/09/17 09:24:21;;;;;;;26.80;24.07;;;22.10;99.90;;;;;;5055913;28;20458;-54
2021/09/17 09:27:07;;;;;;;26.47;23.87;;;21.90;99.90;;;;;;5054953;28;20799;-51
2021/09/17 09:29:37;;;;;;;27.63;24.90;;;22.50;99.90;;;;;;5059222;28;20493;-52
2021/09/17 09:32:05;;;;;;;28.70;25.70;;;22.90;99.90;;;;;;5059616;28;20813;-54
2021/09/17 09:34:56;;;;;;;27.93;25.27;;;22.80;99.90;;;;;;5059449;28;20440;-54
2021/09/17 09:37:33;;;;;;;29.43;26.47;;;22.10;99.90;;;;;;5055429;28;20510;-51
2021/09/17 09:40:03;;;;;;;31.00;25.97;;;21.20;99.90;;;;;;5059376;28;20557;-56
2021/09/17 09:42:37;;;;;;;29.00;24.33;;;21.20;99.90;;;;;;5059669;28;20494;-52
2021/09/17 09:45:16;;;;;;;26.70;23.90;;;21.20;99.90;;;;;;5059483;28;20466;-52
2021/09/17 09:47:46;;;;;;;27.60;24.90;;;21.50;99.90;;;;;;5059501;28;20518;-49
2021/09/17 09:50:21;;;;;;;28.77;25.97;;;22.10;99.90;;;;;;5059401;28;20548;-54
2021/09/17 09:52:49;;;;;;;25.83;23.33;;;22.80;99.90;;;;;;5059157;28;20473;-53
2021/09/17 09:55:17;;;;;;;26.77;23.93;;;23.30;99.90;;;;;;5059344;28;20493;-53
2021/09/17 09:57:44;;;;;;;26.87;23.93;;;23.60;99.90;;;;;;5059497;28;20481;-48
2021/09/17 10:00:15;;;;;;;27.23;24.43;;;23.10;99.90;;;;;;5059430;28;20504;-52
2021/09/17 10:02:47;;;;;;;25.70;23.17;;;23.20;99.90;;;;;;5058737;28;20494;-54
2021/09/17 10:05:17;;;;;;;25.50;22.90;;;23.10;99.90;;;;;;5045984;28;20442;-54
2021/09/17 10:07:49;;;;;;;24.57;22.07;;;22.50;99.90;;;;;;5038799;28;20500;-50
2021/09/17 10:10:16;;;;;;;24.97;22.30;;;22.50;99.90;;;;;;5038119;28;20886;-47
2021/09/17 10:12:46;;;;;;;23.53;21.10;;;22.50;99.90;;;;;;5041250;28;20553;-50
2021/09/17 10:15:15;;;;;;;23.47;21.10;;;22.70;99.90;;;;;;5057686;28;20467;-54
2021/09/17 10:17:49;;;;;;;22.20;20.10;;;22.70;99.90;;;;;;5057663;28;20824;-55
2021/09/17 10:20:17;;;;;;;23.20;20.90;;;22.80;99.90;;;;;;5058520;28;20501;-49
2021/09/17 10:22:45;;;;;;;22.47;20.30;;;22.70;99.90;;;;;;5058972;28;20496;-57
2021/09/17 10:25:14;;;;;;;18.93;16.53;;;22.40;99.90;;;;;;5058589;28;20461;-57
2021/09/17 10:27:45;;;;;;;18.23;16.53;;;22.00;99.90;;;;;;5057949;28;20526;-52
2021/09/17 10:30:18;;;;;;;17.53;15.80;;;22.10;99.90;;;;;;5057453;28;20776;-50
2021/09/17 10:32:49;;;;;;;16.80;15.13;;;22.80;99.90;;;;;;5055183;28;20650;-54
2021/09/17 10:35:21;;;;;;;15.60;14.10;;;23.00;99.90;;;;;;5054156;28;20490;-55
2021/09/17 10:37:56;;;;;;;15.07;13.47;;;22.60;99.90;;;;;;5056793;28;20471;-53
2021/09/17 10:40:42;;;;;;;13.30;12.10;;;22.80;99.90;;;;;;5055031;28;20489;-47
2021/09/17 10:43:20;;;;;;;14.90;13.40;;;22.40;99.90;;;;;;5056351;28;20486;-51
2021/09/17 10:45:50;;;;;;;15.10;13.70;;;23.30;99.90;;;;;;5056882;28;20501;-53
2021/09/17 10:48:19;;;;;;;16.77;15.17;;;23.60;99.90;;;;;;5056567;28;20450;-54
2021/09/17 10:50:52;;;;;;;17.47;15.73;;;24.10;99.90;;;;;;5054536;28;20933;-53
2021/09/17 10:54:06;;;;;;;15.40;13.90;;;24.10;99.90;;;;;;5040527;28;20458;-55
2021/09/17 10:57:10;;;;;;;15.83;14.30;;;24.90;99.90;;;;;;5038637;28;20809;-48
2021/09/17 10:59:46;;;;;;;15.30;13.93;;;24.60;99.90;;;;;;5021283;28;20467;-56
2021/09/17 11:02:13;;;;;;;15.13;13.07;;;24.50;99.90;;;;;;5015628;28;20562;-53
2021/09/17 11:04:43;;;;;;;12.87;11.77;;;24.60;99.90;;;;;;5037449;28;20466;-54
2021/09/17 11:07:34;;;;;;;11.70;10.50;;;24.50;99.90;;;;;;5058001;28;20469;-49
2021/09/17 11:10:03;;;;;;;12.70;11.60;;;24.80;99.90;;;;;;5051465;28;20736;-53
2021/09/17 11:12:35;;;;;;;17.27;15.60;;;24.70;99.90;;;;;;5037932;28;20861;-52
2021/09/17 11:15:10;;;;;;;13.57;12.20;;;24.20;99.90;;;;;;5038178;28;20491;-53
2021/09/17 11:17:43;;;;;;;12.50;10.90;;;23.70;99.90;;;;;;5056601;28;20476;-53
2021/09/17 11:20:14;;;;;;;10.87;9.80;;;23.70;99.90;;;;;;5057619;28;20498;-47
2021/09/17 11:23:00;;;;;;;13.73;11.97;;;23.50;99.90;;;;;;5057919;28;20824;-53
2021/09/17 11:25:31;;;;;;;13.87;12.20;;;23.60;99.90;;;;;;5057783;28;20462;-50
2021/09/17 11:27:58;;;;;;;15.73;14.23;;;23.60;99.90;;;;;;5057104;28;20494;-51
2021/09/17 11:30:27;;;;;;;16.33;14.63;;;22.70;99.90;;;;;;5057625;28;20477;-50
2021/09/17 11:32:55;;;;;;;15.40;13.70;;;22.40;99.90;;;;;;5057598;28;20443;-49
2021/09/17 11:35:22;;;;;;;18.00;15.73;;;22.10;99.90;;;;;;5056903;28;20998;-54
2021/09/17 11:37:54;;;;;;;15.33;13.83;;;22.40;99.90;;;;;;5057004;28;20490;-55
2021/09/17 11:40:24;;;;;;;18.63;16.73;;;22.20;99.90;;;;;;5056723;28;20488;-48
2021/09/17 11:42:51;;;;;;;17.83;16.10;;;22.30;99.90;;;;;;5057369;28;20813;-53
2021/09/17 11:45:21;;;;;;;16.43;15.03;;;22.40;99.90;;;;;;5057376;28;20560;-49
2021/09/17 11:47:51;;;;;;;18.37;16.63;;;22.30;99.90;;;;;;5057411;28;20492;-52
2021/09/17 11:50:20;;;;;;;20.50;18.50;;;22.20;99.90;;;;;;5056907;28;21038;-48
2021/09/17 11:52:48;;;;;;;20.37;18.37;;;22.10;99.90;;;;;;5056083;28;20451;-50
2021/09/17 11:55:21;;;;;;;21.10;18.07;;;22.30;99.90;;;;;;5057307;28;20467;-48
2021/09/17 11:58:00;;;;;;;21.03;17.37;;;22.70;99.90;;;;;;5056761;28;20466;-51
2021/09/17 12:00:29;;;;;;;18.97;17.33;;;22.70;99.90;;;;;;5057036;28;20463;-49
2021/09/17 12:03:02;;;;;;;17.60;15.80;;;22.80;99.90;;;;;;5055316;28;20580;-53
2021/09/17 12:05:31;;;;;;;19.67;17.80;;;22.80;99.90;;;;;;5056781;28;20466;-54
2021/09/17 12:07:58;;;;;;;18.23;16.53;;;22.70;99.90;;;;;;5054715;28;20505;-53
2021/09/17 12:10:34;;;;;;;17.80;16.30;;;23.60;99.90;;;;;;5056033;28;20836;-47
2021/09/17 12:13:05;;;;;;;19.83;17.93;;;23.80;99.90;;;;;;5057400;28;20521;-49
2021/09/17 12:15:39;;;;;;;17.43;15.70;;;23.60;99.90;;;;;;5056706;28;20494;-50
2021/09/17 12:18:07;;;;;;;18.53;16.70;;;23.80;99.90;;;;;;5056629;28;20516;-48
2021/09/17 12:20:47;;;;;;;19.53;17.83;;;23.80;99.90;;;;;;5055931;28;20936;-51
2021/09/17 12:23:19;;;;;;;19.17;17.33;;;24.10;99.90;;;;;;5056432;28;20494;-47
2021/09/17 12:25:48;;;;;;;17.83;16.33;;;24.50;99.90;;;;;;5056470;28;20462;-49
2021/09/17 12:28:21;;;;;;;17.53;15.93;;;25.20;99.90;;;;;;5055951;28;20464;-56
2021/09/17 12:30:50;;;;;;;20.10;18.43;;;26.00;99.90;;;;;;5056621;28;20569;-52
2021/09/17 12:33:21;;;;;;;19.63;17.70;;;26.20;99.90;;;;;;5056141;28;20520;-49
2021/09/17 12:35:54;;;;;;;20.73;18.93;;;26.10;99.90;;;;;;5056491;28;20466;-47
2021/09/17 12:38:25;;;;;;;19.10;17.40;;;26.00;99.90;;;;;;5055002;28;20494;-54
2021/09/17 12:40:54;;;;;;;20.97;19.10;;;26.70;99.90;;;;;;5056585;28;20560;-54
2021/09/17 12:43:28;;;;;;;21.17;19.33;;;26.40;99.90;;;;;;5056850;28;20873;-48
2021/09/17 12:46:00;;;;;;;21.13;18.93;;;26.20;99.90;;;;;;5056644;28;20480;-49